Аэропорт: Шымкент. Шымкент

ICAO: UAII

METAR:
2020-08-12 06:00:00
UAII 120600Z 32004MPS 280V010 CAVOK 30/M01 Q1008 R28/0///70 NOSIG RMK QFE719/0959
METAR:
2020-08-12 05:00:00
TAF UAII 120500Z 1206/1306 25003G08MPS CAVOK TX32/1210Z TN19/1301Z TEMPO 1204/1216 29005G10MPS FEW050CB BECMG 1216/1218 09004MPS TEMPO 1221/1306 13005MPS SCT040